sensor_id;sensor_type;location;lat;lon;timestamp;P1;durP1;ratioP1;P2;durP2;ratioP2
53145;SDS011;39042;53.150;5.898;2023-06-26T00:01:27;9.30;;;8.38;;
53145;SDS011;39042;53.150;5.898;2023-06-26T00:03:59;10.75;;;8.50;;
53145;SDS011;39042;53.150;5.898;2023-06-26T00:06:26;10.20;;;9.07;;
53145;SDS011;39042;53.150;5.898;2023-06-26T00:08:53;11.57;;;9.25;;
53145;SDS011;39042;53.150;5.898;2023-06-26T00:11:19;11.52;;;8.82;;
53145;SDS011;39042;53.150;5.898;2023-06-26T00:13:46;9.45;;;8.55;;
53145;SDS011;39042;53.150;5.898;2023-06-26T00:16:13;10.95;;;8.63;;
53145;SDS011;39042;53.150;5.898;2023-06-26T00:18:38;9.93;;;8.93;;
53145;SDS011;39042;53.150;5.898;2023-06-26T00:21:04;10.45;;;8.25;;
53145;SDS011;39042;53.150;5.898;2023-06-26T00:23:30;10.40;;;7.78;;
53145;SDS011;39042;53.150;5.898;2023-06-26T00:25:58;9.77;;;8.68;;
53145;SDS011;39042;53.150;5.898;2023-06-26T00:28:24;10.32;;;9.05;;
53145;SDS011;39042;53.150;5.898;2023-06-26T00:30:49;13.10;;;9.27;;
53145;SDS011;39042;53.150;5.898;2023-06-26T00:33:15;12.43;;;8.75;;
53145;SDS011;39042;53.150;5.898;2023-06-26T00:35:41;11.45;;;9.20;;
53145;SDS011;39042;53.150;5.898;2023-06-26T00:38:07;8.10;;;7.30;;
53145;SDS011;39042;53.150;5.898;2023-06-26T00:40:33;10.40;;;8.68;;
53145;SDS011;39042;53.150;5.898;2023-06-26T00:42:59;11.63;;;8.80;;
53145;SDS011;39042;53.150;5.898;2023-06-26T00:45:28;10.35;;;8.48;;
53145;SDS011;39042;53.150;5.898;2023-06-26T00:47:53;10.18;;;9.07;;
53145;SDS011;39042;53.150;5.898;2023-06-26T00:50:20;11.70;;;9.45;;
53145;SDS011;39042;53.150;5.898;2023-06-26T00:52:46;11.65;;;9.10;;
53145;SDS011;39042;53.150;5.898;2023-06-26T00:55:12;9.98;;;8.80;;
53145;SDS011;39042;53.150;5.898;2023-06-26T00:57:38;9.90;;;8.57;;
53145;SDS011;39042;53.150;5.898;2023-06-26T01:00:04;10.35;;;9.30;;
53145;SDS011;39042;53.150;5.898;2023-06-26T01:02:31;10.50;;;9.40;;
53145;SDS011;39042;53.150;5.898;2023-06-26T01:05:01;11.52;;;9.45;;
53145;SDS011;39042;53.150;5.898;2023-06-26T01:07:34;10.88;;;8.63;;
53145;SDS011;39042;53.150;5.898;2023-06-26T01:10:04;11.95;;;8.70;;
53145;SDS011;39042;53.150;5.898;2023-06-26T01:12:31;10.90;;;9.45;;
53145;SDS011;39042;53.150;5.898;2023-06-26T01:15:01;10.18;;;9.07;;
53145;SDS011;39042;53.150;5.898;2023-06-26T01:17:27;13.07;;;9.00;;
53145;SDS011;39042;53.150;5.898;2023-06-26T01:20:00;11.52;;;9.13;;
53145;SDS011;39042;53.150;5.898;2023-06-26T01:28:04;10.75;;;9.30;;
53145;SDS011;39042;53.150;5.898;2023-06-26T01:30:32;11.98;;;9.70;;
53145;SDS011;39042;53.150;5.898;2023-06-26T01:33:03;11.63;;;8.90;;
53145;SDS011;39042;53.150;5.898;2023-06-26T01:35:29;11.73;;;9.15;;
53145;SDS011;39042;53.150;5.898;2023-06-26T01:40:41;12.70;;;10.30;;
53145;SDS011;39042;53.150;5.898;2023-06-26T01:43:08;10.38;;;9.38;;
53145;SDS011;39042;53.150;5.898;2023-06-26T01:45:44;11.00;;;9.90;;
53145;SDS011;39042;53.150;5.898;2023-06-26T01:48:12;11.75;;;9.98;;
53145;SDS011;39042;53.150;5.898;2023-06-26T01:50:41;12.80;;;10.73;;
53145;SDS011;39042;53.150;5.898;2023-06-26T01:53:11;13.30;;;10.75;;
53145;SDS011;39042;53.150;5.898;2023-06-26T01:58:43;11.93;;;10.63;;
53145;SDS011;39042;53.150;5.898;2023-06-26T02:01:12;12.75;;;11.35;;
53145;SDS011;39042;53.150;5.898;2023-06-26T02:03:38;11.05;;;9.75;;
53145;SDS011;39042;53.150;5.898;2023-06-26T02:06:04;14.05;;;12.48;;
53145;SDS011;39042;53.150;5.898;2023-06-26T02:08:30;12.40;;;10.63;;
53145;SDS011;39042;53.150;5.898;2023-06-26T02:10:56;12.73;;;10.45;;
53145;SDS011;39042;53.150;5.898;2023-06-26T02:13:21;13.57;;;11.55;;
53145;SDS011;39042;53.150;5.898;2023-06-26T02:15:48;13.00;;;10.82;;
53145;SDS011;39042;53.150;5.898;2023-06-26T02:18:13;13.57;;;12.18;;
53145;SDS011;39042;53.150;5.898;2023-06-26T02:20:39;14.85;;;11.73;;
53145;SDS011;39042;53.150;5.898;2023-06-26T02:23:05;13.75;;;11.10;;
53145;SDS011;39042;53.150;5.898;2023-06-26T02:25:31;15.32;;;11.55;;
53145;SDS011;39042;53.150;5.898;2023-06-26T02:27:57;14.80;;;11.68;;
53145;SDS011;39042;53.150;5.898;2023-06-26T02:30:23;13.43;;;11.50;;
53145;SDS011;39042;53.150;5.898;2023-06-26T02:32:48;12.85;;;11.55;;
53145;SDS011;39042;53.150;5.898;2023-06-26T02:35:17;13.32;;;11.77;;
53145;SDS011;39042;53.150;5.898;2023-06-26T02:37:43;12.40;;;11.15;;
53145;SDS011;39042;53.150;5.898;2023-06-26T02:40:10;11.70;;;10.50;;
53145;SDS011;39042;53.150;5.898;2023-06-26T02:42:37;11.38;;;9.68;;
53145;SDS011;39042;53.150;5.898;2023-06-26T02:47:31;10.35;;;9.13;;
53145;SDS011;39042;53.150;5.898;2023-06-26T02:49:57;12.07;;;9.27;;
53145;SDS011;39042;53.150;5.898;2023-06-26T02:52:22;10.23;;;9.10;;
53145;SDS011;39042;53.150;5.898;2023-06-26T02:54:48;9.52;;;8.52;;
53145;SDS011;39042;53.150;5.898;2023-06-26T02:57:14;10.65;;;8.88;;
53145;SDS011;39042;53.150;5.898;2023-06-26T02:59:42;13.05;;;9.35;;
53145;SDS011;39042;53.150;5.898;2023-06-26T03:02:09;13.30;;;8.75;;
53145;SDS011;39042;53.150;5.898;2023-06-26T03:04:39;13.80;;;9.25;;
53145;SDS011;39042;53.150;5.898;2023-06-26T03:07:12;12.80;;;9.68;;
53145;SDS011;39042;53.150;5.898;2023-06-26T03:09:40;12.45;;;8.82;;
53145;SDS011;39042;53.150;5.898;2023-06-26T03:12:06;11.93;;;8.80;;
53145;SDS011;39042;53.150;5.898;2023-06-26T03:14:33;13.07;;;9.10;;
53145;SDS011;39042;53.150;5.898;2023-06-26T03:16:59;13.00;;;9.10;;
53145;SDS011;39042;53.150;5.898;2023-06-26T03:19:29;11.45;;;9.25;;
53145;SDS011;39042;53.150;5.898;2023-06-26T03:22:27;12.18;;;9.10;;
53145;SDS011;39042;53.150;5.898;2023-06-26T03:24:53;12.23;;;8.73;;
53145;SDS011;39042;53.150;5.898;2023-06-26T03:27:20;12.82;;;8.63;;
53145;SDS011;39042;53.150;5.898;2023-06-26T03:29:48;12.77;;;8.77;;
53145;SDS011;39042;53.150;5.898;2023-06-26T03:32:15;12.40;;;8.95;;
53145;SDS011;39042;53.150;5.898;2023-06-26T03:34:41;13.80;;;8.85;;
53145;SDS011;39042;53.150;5.898;2023-06-26T03:37:07;18.30;;;9.32;;
53145;SDS011;39042;53.150;5.898;2023-06-26T03:39:33;16.08;;;9.30;;
53145;SDS011;39042;53.150;5.898;2023-06-26T03:41:59;13.63;;;8.52;;
53145;SDS011;39042;53.150;5.898;2023-06-26T03:44:26;13.43;;;9.35;;
53145;SDS011;39042;53.150;5.898;2023-06-26T03:46:53;14.63;;;9.15;;
53145;SDS011;39042;53.150;5.898;2023-06-26T03:49:19;12.68;;;9.80;;
53145;SDS011;39042;53.150;5.898;2023-06-26T03:54:12;19.20;;;10.57;;
53145;SDS011;39042;53.150;5.898;2023-06-26T03:56:38;17.20;;;11.02;;
53145;SDS011;39042;53.150;5.898;2023-06-26T03:59:05;21.42;;;12.25;;
53145;SDS011;39042;53.150;5.898;2023-06-26T04:01:31;25.98;;;13.48;;
53145;SDS011;39042;53.150;5.898;2023-06-26T04:03:56;23.60;;;14.05;;
53145;SDS011;39042;53.150;5.898;2023-06-26T04:06:22;22.42;;;13.35;;
53145;SDS011;39042;53.150;5.898;2023-06-26T04:08:48;26.30;;;14.43;;
53145;SDS011;39042;53.150;5.898;2023-06-26T04:13:40;25.50;;;14.20;;
53145;SDS011;39042;53.150;5.898;2023-06-26T04:16:06;27.08;;;15.32;;
53145;SDS011;39042;53.150;5.898;2023-06-26T04:18:32;24.98;;;13.48;;
53145;SDS011;39042;53.150;5.898;2023-06-26T04:23:37;18.55;;;11.73;;
53145;SDS011;39042;53.150;5.898;2023-06-26T04:26:04;21.20;;;12.73;;
53145;SDS011;39042;53.150;5.898;2023-06-26T04:28:31;21.40;;;11.38;;
53145;SDS011;39042;53.150;5.898;2023-06-26T04:30:57;20.77;;;10.57;;
53145;SDS011;39042;53.150;5.898;2023-06-26T04:35:51;20.15;;;8.93;;
53145;SDS011;39042;53.150;5.898;2023-06-26T04:38:17;13.80;;;7.53;;
53145;SDS011;39042;53.150;5.898;2023-06-26T04:40:44;14.48;;;8.70;;
53145;SDS011;39042;53.150;5.898;2023-06-26T04:43:10;15.95;;;7.22;;
53145;SDS011;39042;53.150;5.898;2023-06-26T04:45:36;17.77;;;6.72;;
53145;SDS011;39042;53.150;5.898;2023-06-26T04:48:02;20.30;;;6.18;;
53145;SDS011;39042;53.150;5.898;2023-06-26T04:50:29;14.50;;;4.78;;
53145;SDS011;39042;53.150;5.898;2023-06-26T04:52:55;13.18;;;4.63;;
53145;SDS011;39042;53.150;5.898;2023-06-26T04:55:23;14.38;;;4.20;;
53145;SDS011;39042;53.150;5.898;2023-06-26T04:57:50;14.27;;;4.15;;
53145;SDS011;39042;53.150;5.898;2023-06-26T05:00:16;17.40;;;4.10;;
53145;SDS011;39042;53.150;5.898;2023-06-26T05:05:08;15.68;;;4.32;;
53145;SDS011;39042;53.150;5.898;2023-06-26T05:07:34;16.98;;;4.00;;
53145;SDS011;39042;53.150;5.898;2023-06-26T05:10:00;15.52;;;4.95;;
53145;SDS011;39042;53.150;5.898;2023-06-26T05:12:25;14.73;;;4.38;;
53145;SDS011;39042;53.150;5.898;2023-06-26T05:14:51;17.15;;;4.45;;
53145;SDS011;39042;53.150;5.898;2023-06-26T05:17:17;15.00;;;4.22;;
53145;SDS011;39042;53.150;5.898;2023-06-26T05:19:43;11.50;;;3.97;;
53145;SDS011;39042;53.150;5.898;2023-06-26T05:22:09;13.90;;;3.20;;
53145;SDS011;39042;53.150;5.898;2023-06-26T05:24:35;12.00;;;2.95;;
53145;SDS011;39042;53.150;5.898;2023-06-26T05:27:02;13.98;;;3.47;;
53145;SDS011;39042;53.150;5.898;2023-06-26T05:29:30;14.98;;;3.35;;
53145;SDS011;39042;53.150;5.898;2023-06-26T05:31:56;10.40;;;2.67;;
53145;SDS011;39042;53.150;5.898;2023-06-26T05:34:24;13.25;;;2.95;;
53145;SDS011;39042;53.150;5.898;2023-06-26T05:36:55;12.63;;;2.72;;
53145;SDS011;39042;53.150;5.898;2023-06-26T05:39:24;12.65;;;3.20;;
53145;SDS011;39042;53.150;5.898;2023-06-26T05:41:50;10.38;;;2.42;;
53145;SDS011;39042;53.150;5.898;2023-06-26T05:44:16;11.95;;;3.60;;
53145;SDS011;39042;53.150;5.898;2023-06-26T05:46:43;11.35;;;2.47;;
53145;SDS011;39042;53.150;5.898;2023-06-26T05:49:09;9.82;;;2.60;;
53145;SDS011;39042;53.150;5.898;2023-06-26T05:51:35;9.60;;;2.40;;
53145;SDS011;39042;53.150;5.898;2023-06-26T05:54:01;10.43;;;1.98;;
53145;SDS011;39042;53.150;5.898;2023-06-26T05:56:27;6.28;;;1.52;;
53145;SDS011;39042;53.150;5.898;2023-06-26T05:58:54;6.45;;;1.42;;
53145;SDS011;39042;53.150;5.898;2023-06-26T06:01:20;8.55;;;1.48;;
53145;SDS011;39042;53.150;5.898;2023-06-26T06:03:46;10.55;;;1.90;;
53145;SDS011;39042;53.150;5.898;2023-06-26T06:06:12;8.02;;;1.45;;
53145;SDS011;39042;53.150;5.898;2023-06-26T06:08:38;4.85;;;1.33;;
53145;SDS011;39042;53.150;5.898;2023-06-26T06:11:04;7.35;;;1.67;;
53145;SDS011;39042;53.150;5.898;2023-06-26T06:13:30;7.60;;;1.95;;
53145;SDS011;39042;53.150;5.898;2023-06-26T06:15:56;7.43;;;1.77;;
53145;SDS011;39042;53.150;5.898;2023-06-26T06:18:22;6.55;;;1.40;;
53145;SDS011;39042;53.150;5.898;2023-06-26T06:20:48;10.23;;;1.67;;
53145;SDS011;39042;53.150;5.898;2023-06-26T06:23:13;9.68;;;1.83;;
53145;SDS011;39042;53.150;5.898;2023-06-26T06:25:39;11.40;;;2.28;;
53145;SDS011;39042;53.150;5.898;2023-06-26T06:28:05;11.73;;;2.83;;
53145;SDS011;39042;53.150;5.898;2023-06-26T06:30:31;7.78;;;1.63;;
53145;SDS011;39042;53.150;5.898;2023-06-26T06:32:57;5.75;;;1.42;;
53145;SDS011;39042;53.150;5.898;2023-06-26T06:35:23;10.50;;;1.20;;
53145;SDS011;39042;53.150;5.898;2023-06-26T06:37:49;5.80;;;1.40;;
53145;SDS011;39042;53.150;5.898;2023-06-26T06:40:15;6.55;;;1.20;;
53145;SDS011;39042;53.150;5.898;2023-06-26T06:42:41;7.53;;;1.58;;
53145;SDS011;39042;53.150;5.898;2023-06-26T06:45:07;10.10;;;1.77;;
53145;SDS011;39042;53.150;5.898;2023-06-26T06:47:33;5.63;;;1.10;;
53145;SDS011;39042;53.150;5.898;2023-06-26T06:50:00;8.57;;;1.48;;
53145;SDS011;39042;53.150;5.898;2023-06-26T06:52:39;6.07;;;1.02;;
53145;SDS011;39042;53.150;5.898;2023-06-26T06:55:06;7.03;;;1.20;;
53145;SDS011;39042;53.150;5.898;2023-06-26T06:57:37;7.25;;;1.20;;
53145;SDS011;39042;53.150;5.898;2023-06-26T07:00:08;9.77;;;1.05;;
53145;SDS011;39042;53.150;5.898;2023-06-26T07:02:36;8.20;;;0.75;;
53145;SDS011;39042;53.150;5.898;2023-06-26T07:05:05;3.92;;;1.10;;
53145;SDS011;39042;53.150;5.898;2023-06-26T07:07:32;4.45;;;0.70;;
53145;SDS011;39042;53.150;5.898;2023-06-26T07:10:00;3.55;;;0.88;;
53145;SDS011;39042;53.150;5.898;2023-06-26T07:12:30;4.22;;;1.00;;
53145;SDS011;39042;53.150;5.898;2023-06-26T07:14:56;2.50;;;0.57;;
53145;SDS011;39042;53.150;5.898;2023-06-26T07:17:23;2.95;;;0.80;;
53145;SDS011;39042;53.150;5.898;2023-06-26T07:19:49;7.50;;;1.23;;
53145;SDS011;39042;53.150;5.898;2023-06-26T07:22:15;3.10;;;1.27;;
53145;SDS011;39042;53.150;5.898;2023-06-26T07:24:41;5.57;;;0.95;;
53145;SDS011;39042;53.150;5.898;2023-06-26T07:27:07;2.83;;;0.98;;
53145;SDS011;39042;53.150;5.898;2023-06-26T07:29:33;3.50;;;1.02;;
53145;SDS011;39042;53.150;5.898;2023-06-26T07:52:49;2.92;;;0.80;;
53145;SDS011;39042;53.150;5.898;2023-06-26T08:03:43;5.22;;;1.35;;
53145;SDS011;39042;53.150;5.898;2023-06-26T08:07:23;3.30;;;1.08;;
53145;SDS011;39042;53.150;5.898;2023-06-26T08:10:48;3.63;;;0.93;;
53145;SDS011;39042;53.150;5.898;2023-06-26T08:17:43;5.13;;;1.40;;
53145;SDS011;39042;53.150;5.898;2023-06-26T08:21:18;4.85;;;1.20;;
53145;SDS011;39042;53.150;5.898;2023-06-26T08:25:02;6.93;;;1.10;;
53145;SDS011;39042;53.150;5.898;2023-06-26T08:28:28;4.53;;;1.38;;
53145;SDS011;39042;53.150;5.898;2023-06-26T08:31:59;5.32;;;1.30;;
53145;SDS011;39042;53.150;5.898;2023-06-26T08:35:00;4.63;;;1.50;;
53145;SDS011;39042;53.150;5.898;2023-06-26T08:38:11;5.90;;;1.52;;
53145;SDS011;39042;53.150;5.898;2023-06-26T08:41:20;4.20;;;1.73;;
53145;SDS011;39042;53.150;5.898;2023-06-26T08:43:52;4.57;;;1.60;;
53145;SDS011;39042;53.150;5.898;2023-06-26T08:46:21;4.55;;;1.80;;
53145;SDS011;39042;53.150;5.898;2023-06-26T08:48:59;5.88;;;2.10;;
53145;SDS011;39042;53.150;5.898;2023-06-26T08:51:27;5.95;;;2.20;;
53145;SDS011;39042;53.150;5.898;2023-06-26T08:56:24;6.72;;;2.20;;
53145;SDS011;39042;53.150;5.898;2023-06-26T08:58:58;7.05;;;2.20;;
53145;SDS011;39042;53.150;5.898;2023-06-26T09:01:25;8.43;;;2.53;;
53145;SDS011;39042;53.150;5.898;2023-06-26T09:03:51;4.57;;;2.45;;
53145;SDS011;39042;53.150;5.898;2023-06-26T09:08:43;9.00;;;2.38;;
53145;SDS011;39042;53.150;5.898;2023-06-26T09:11:09;6.45;;;2.10;;
53145;SDS011;39042;53.150;5.898;2023-06-26T09:13:35;8.02;;;2.10;;
53145;SDS011;39042;53.150;5.898;2023-06-26T09:16:08;4.18;;;1.73;;
53145;SDS011;39042;53.150;5.898;2023-06-26T09:18:34;7.57;;;1.92;;
53145;SDS011;39042;53.150;5.898;2023-06-26T09:21:05;7.90;;;2.17;;
53145;SDS011;39042;53.150;5.898;2023-06-26T09:23:33;5.25;;;2.38;;
53145;SDS011;39042;53.150;5.898;2023-06-26T09:26:04;6.45;;;2.45;;
53145;SDS011;39042;53.150;5.898;2023-06-26T09:28:31;6.30;;;2.40;;
53145;SDS011;39042;53.150;5.898;2023-06-26T09:31:05;6.75;;;3.25;;
53145;SDS011;39042;53.150;5.898;2023-06-26T09:33:33;5.38;;;2.97;;
53145;SDS011;39042;53.150;5.898;2023-06-26T09:36:06;6.15;;;3.58;;
53145;SDS011;39042;53.150;5.898;2023-06-26T09:38:36;6.63;;;3.35;;
53145;SDS011;39042;53.150;5.898;2023-06-26T09:41:06;6.28;;;3.08;;
53145;SDS011;39042;53.150;5.898;2023-06-26T09:43:32;7.43;;;2.80;;
53145;SDS011;39042;53.150;5.898;2023-06-26T09:45:58;10.57;;;2.95;;
53145;SDS011;39042;53.150;5.898;2023-06-26T09:48:27;6.65;;;3.13;;
53145;SDS011;39042;53.150;5.898;2023-06-26T09:50:53;6.63;;;2.80;;
53145;SDS011;39042;53.150;5.898;2023-06-26T09:53:27;3.95;;;1.73;;
53145;SDS011;39042;53.150;5.898;2023-06-26T09:55:55;6.65;;;2.00;;
53145;SDS011;39042;53.150;5.898;2023-06-26T09:58:21;4.70;;;2.10;;
53145;SDS011;39042;53.150;5.898;2023-06-26T10:00:48;6.00;;;1.77;;
53145;SDS011;39042;53.150;5.898;2023-06-26T10:03:14;6.88;;;1.55;;
53145;SDS011;39042;53.150;5.898;2023-06-26T10:05:40;5.35;;;1.70;;
53145;SDS011;39042;53.150;5.898;2023-06-26T10:08:06;4.63;;;1.55;;
53145;SDS011;39042;53.150;5.898;2023-06-26T10:10:34;5.05;;;1.83;;
53145;SDS011;39042;53.150;5.898;2023-06-26T10:13:24;5.97;;;2.10;;
53145;SDS011;39042;53.150;5.898;2023-06-26T10:15:52;7.53;;;1.63;;
53145;SDS011;39042;53.150;5.898;2023-06-26T10:18:21;5.97;;;1.05;;
53145;SDS011;39042;53.150;5.898;2023-06-26T10:20:49;9.15;;;1.38;;
53145;SDS011;39042;53.150;5.898;2023-06-26T10:23:19;8.52;;;1.73;;
53145;SDS011;39042;53.150;5.898;2023-06-26T10:25:45;7.55;;;1.20;;
53145;SDS011;39042;53.150;5.898;2023-06-26T10:28:13;6.20;;;0.90;;
53145;SDS011;39042;53.150;5.898;2023-06-26T10:30:41;3.97;;;0.95;;
53145;SDS011;39042;53.150;5.898;2023-06-26T10:33:09;6.82;;;1.00;;
53145;SDS011;39042;53.150;5.898;2023-06-26T10:35:43;3.35;;;1.08;;
53145;SDS011;39042;53.150;5.898;2023-06-26T10:38:12;11.48;;;0.88;;
53145;SDS011;39042;53.150;5.898;2023-06-26T10:40:45;5.13;;;1.02;;
53145;SDS011;39042;53.150;5.898;2023-06-26T10:43:14;3.38;;;0.60;;
53145;SDS011;39042;53.150;5.898;2023-06-26T10:45:49;3.38;;;0.30;;
53145;SDS011;39042;53.150;5.898;2023-06-26T10:48:19;5.75;;;0.47;;
53145;SDS011;39042;53.150;5.898;2023-06-26T10:50:49;7.40;;;0.88;;
53145;SDS011;39042;53.150;5.898;2023-06-26T10:55:56;7.95;;;0.80;;
53145;SDS011;39042;53.150;5.898;2023-06-26T10:58:30;6.55;;;0.60;;
53145;SDS011;39042;53.150;5.898;2023-06-26T11:03:37;3.22;;;0.68;;
53145;SDS011;39042;53.150;5.898;2023-06-26T11:06:22;3.50;;;0.52;;
53145;SDS011;39042;53.150;5.898;2023-06-26T11:08:51;6.03;;;0.98;;
53145;SDS011;39042;53.150;5.898;2023-06-26T11:14:27;5.22;;;0.70;;
53145;SDS011;39042;53.150;5.898;2023-06-26T11:16:56;7.20;;;1.00;;
53145;SDS011;39042;53.150;5.898;2023-06-26T11:19:25;6.72;;;0.98;;
53145;SDS011;39042;53.150;5.898;2023-06-26T11:21:57;6.45;;;0.63;;
53145;SDS011;39042;53.150;5.898;2023-06-26T11:24:24;7.15;;;0.82;;
53145;SDS011;39042;53.150;5.898;2023-06-26T11:26:50;5.80;;;0.68;;
53145;SDS011;39042;53.150;5.898;2023-06-26T11:29:16;6.97;;;1.25;;
53145;SDS011;39042;53.150;5.898;2023-06-26T11:31:42;4.22;;;0.80;;
53145;SDS011;39042;53.150;5.898;2023-06-26T11:34:12;4.60;;;0.73;;
53145;SDS011;39042;53.150;5.898;2023-06-26T11:36:39;4.72;;;0.88;;
53145;SDS011;39042;53.150;5.898;2023-06-26T11:39:07;9.35;;;1.30;;
53145;SDS011;39042;53.150;5.898;2023-06-26T11:41:36;7.43;;;1.30;;
53145;SDS011;39042;53.150;5.898;2023-06-26T11:44:08;7.63;;;1.05;;
53145;SDS011;39042;53.150;5.898;2023-06-26T11:46:35;6.70;;;0.95;;
53145;SDS011;39042;53.150;5.898;2023-06-26T11:49:05;7.80;;;1.02;;
53145;SDS011;39042;53.150;5.898;2023-06-26T11:51:32;4.90;;;1.02;;
53145;SDS011;39042;53.150;5.898;2023-06-26T11:54:00;8.52;;;0.88;;
53145;SDS011;39042;53.150;5.898;2023-06-26T11:56:30;5.65;;;1.23;;
53145;SDS011;39042;53.150;5.898;2023-06-26T12:04:00;8.77;;;1.50;;
53145;SDS011;39042;53.150;5.898;2023-06-26T12:06:29;7.78;;;1.50;;
53145;SDS011;39042;53.150;5.898;2023-06-26T12:08:57;6.50;;;1.25;;
53145;SDS011;39042;53.150;5.898;2023-06-26T12:11:25;5.55;;;1.30;;
53145;SDS011;39042;53.150;5.898;2023-06-26T12:13:53;6.55;;;1.35;;
53145;SDS011;39042;53.150;5.898;2023-06-26T12:16:19;5.68;;;0.80;;
53145;SDS011;39042;53.150;5.898;2023-06-26T12:18:46;7.95;;;1.10;;
53145;SDS011;39042;53.150;5.898;2023-06-26T12:21:42;9.73;;;1.60;;
53145;SDS011;39042;53.150;5.898;2023-06-26T12:24:14;5.72;;;0.88;;
53145;SDS011;39042;53.150;5.898;2023-06-26T12:26:46;5.88;;;1.00;;
53145;SDS011;39042;53.150;5.898;2023-06-26T12:29:21;3.90;;;0.85;;
53145;SDS011;39042;53.150;5.898;2023-06-26T12:31:51;8.95;;;1.20;;
53145;SDS011;39042;53.150;5.898;2023-06-26T12:34:18;6.07;;;0.90;;
53145;SDS011;39042;53.150;5.898;2023-06-26T12:36:49;7.57;;;1.00;;
53145;SDS011;39042;53.150;5.898;2023-06-26T12:39:20;6.88;;;0.75;;
53145;SDS011;39042;53.150;5.898;2023-06-26T12:41:47;3.10;;;0.70;;
53145;SDS011;39042;53.150;5.898;2023-06-26T12:44:21;6.57;;;1.10;;
53145;SDS011;39042;53.150;5.898;2023-06-26T12:46:50;4.20;;;0.80;;
53145;SDS011;39042;53.150;5.898;2023-06-26T12:49:20;7.30;;;1.20;;
53145;SDS011;39042;53.150;5.898;2023-06-26T12:51:46;6.10;;;1.10;;
53145;SDS011;39042;53.150;5.898;2023-06-26T12:56:39;6.82;;;1.08;;
53145;SDS011;39042;53.150;5.898;2023-06-26T12:59:04;5.05;;;1.05;;
53145;SDS011;39042;53.150;5.898;2023-06-26T13:01:30;5.13;;;1.00;;
53145;SDS011;39042;53.150;5.898;2023-06-26T13:03:56;7.45;;;1.00;;
53145;SDS011;39042;53.150;5.898;2023-06-26T13:06:22;7.03;;;1.27;;
53145;SDS011;39042;53.150;5.898;2023-06-26T13:08:48;7.65;;;1.27;;
53145;SDS011;39042;53.150;5.898;2023-06-26T13:11:13;4.45;;;1.08;;
53145;SDS011;39042;53.150;5.898;2023-06-26T13:13:42;6.15;;;1.23;;
53145;SDS011;39042;53.150;5.898;2023-06-26T13:16:08;3.47;;;0.90;;
53145;SDS011;39042;53.150;5.898;2023-06-26T13:18:33;5.55;;;1.10;;
53145;SDS011;39042;53.150;5.898;2023-06-26T13:20:59;8.38;;;1.10;;
53145;SDS011;39042;53.150;5.898;2023-06-26T13:23:25;5.18;;;1.00;;
53145;SDS011;39042;53.150;5.898;2023-06-26T13:25:51;3.38;;;0.60;;
53145;SDS011;39042;53.150;5.898;2023-06-26T13:30:43;8.88;;;1.20;;
53145;SDS011;39042;53.150;5.898;2023-06-26T13:33:09;8.93;;;1.50;;
53145;SDS011;39042;53.150;5.898;2023-06-26T13:35:36;5.28;;;0.90;;
53145;SDS011;39042;53.150;5.898;2023-06-26T13:38:02;6.40;;;0.68;;
53145;SDS011;39042;53.150;5.898;2023-06-26T13:40:27;4.68;;;0.90;;
53145;SDS011;39042;53.150;5.898;2023-06-26T13:42:53;3.65;;;0.60;;
53145;SDS011;39042;53.150;5.898;2023-06-26T13:45:19;5.50;;;0.80;;
53145;SDS011;39042;53.150;5.898;2023-06-26T13:47:45;5.15;;;1.02;;
53145;SDS011;39042;53.150;5.898;2023-06-26T13:50:11;7.32;;;0.90;;
53145;SDS011;39042;53.150;5.898;2023-06-26T13:52:37;8.45;;;1.13;;
53145;SDS011;39042;53.150;5.898;2023-06-26T13:55:03;4.75;;;0.70;;
53145;SDS011;39042;53.150;5.898;2023-06-26T13:57:32;3.70;;;0.60;;
53145;SDS011;39042;53.150;5.898;2023-06-26T13:59:58;7.40;;;0.90;;
53145;SDS011;39042;53.150;5.898;2023-06-26T14:02:24;5.57;;;0.60;;
53145;SDS011;39042;53.150;5.898;2023-06-26T14:04:51;6.15;;;0.70;;
53145;SDS011;39042;53.150;5.898;2023-06-26T14:07:17;4.68;;;0.90;;
53145;SDS011;39042;53.150;5.898;2023-06-26T14:09:43;6.10;;;1.02;;
53145;SDS011;39042;53.150;5.898;2023-06-26T14:12:09;7.30;;;1.27;;
53145;SDS011;39042;53.150;5.898;2023-06-26T14:14:35;6.50;;;1.00;;
53145;SDS011;39042;53.150;5.898;2023-06-26T14:17:00;5.72;;;0.80;;
53145;SDS011;39042;53.150;5.898;2023-06-26T14:19:27;6.53;;;0.85;;
53145;SDS011;39042;53.150;5.898;2023-06-26T14:21:53;6.07;;;0.70;;
53145;SDS011;39042;53.150;5.898;2023-06-26T14:24:19;8.43;;;0.73;;
53145;SDS011;39042;53.150;5.898;2023-06-26T14:26:44;6.32;;;1.13;;
53145;SDS011;39042;53.150;5.898;2023-06-26T14:29:10;4.22;;;0.85;;
53145;SDS011;39042;53.150;5.898;2023-06-26T14:31:36;6.97;;;0.55;;
53145;SDS011;39042;53.150;5.898;2023-06-26T14:34:02;3.08;;;0.88;;
53145;SDS011;39042;53.150;5.898;2023-06-26T14:36:28;5.20;;;1.00;;
53145;SDS011;39042;53.150;5.898;2023-06-26T14:38:57;7.57;;;1.00;;
53145;SDS011;39042;53.150;5.898;2023-06-26T14:41:23;5.45;;;0.73;;
53145;SDS011;39042;53.150;5.898;2023-06-26T14:43:50;3.10;;;0.98;;
53145;SDS011;39042;53.150;5.898;2023-06-26T14:46:16;6.40;;;0.80;;
53145;SDS011;39042;53.150;5.898;2023-06-26T14:48:42;3.83;;;0.80;;
53145;SDS011;39042;53.150;5.898;2023-06-26T14:51:07;2.50;;;0.50;;
53145;SDS011;39042;53.150;5.898;2023-06-26T14:53:33;4.38;;;0.50;;
53145;SDS011;39042;53.150;5.898;2023-06-26T14:55:59;4.38;;;0.82;;
53145;SDS011;39042;53.150;5.898;2023-06-26T14:58:25;7.45;;;1.15;;
53145;SDS011;39042;53.150;5.898;2023-06-26T15:00:51;7.88;;;0.68;;
53145;SDS011;39042;53.150;5.898;2023-06-26T15:03:16;6.45;;;0.95;;
53145;SDS011;39042;53.150;5.898;2023-06-26T15:05:42;4.75;;;0.47;;
53145;SDS011;39042;53.150;5.898;2023-06-26T15:08:08;4.32;;;0.45;;
53145;SDS011;39042;53.150;5.898;2023-06-26T15:10:36;5.07;;;1.45;;
53145;SDS011;39042;53.150;5.898;2023-06-26T15:13:02;2.85;;;0.70;;
53145;SDS011;39042;53.150;5.898;2023-06-26T15:15:27;4.72;;;0.77;;
53145;SDS011;39042;53.150;5.898;2023-06-26T15:17:53;4.28;;;0.43;;
53145;SDS011;39042;53.150;5.898;2023-06-26T15:20:19;4.32;;;0.63;;
53145;SDS011;39042;53.150;5.898;2023-06-26T15:22:45;4.18;;;0.82;;
53145;SDS011;39042;53.150;5.898;2023-06-26T15:25:11;4.10;;;0.75;;
53145;SDS011;39042;53.150;5.898;2023-06-26T15:27:37;6.47;;;0.82;;
53145;SDS011;39042;53.150;5.898;2023-06-26T15:30:03;4.28;;;0.88;;
53145;SDS011;39042;53.150;5.898;2023-06-26T15:32:31;4.57;;;0.68;;
53145;SDS011;39042;53.150;5.898;2023-06-26T15:34:57;4.10;;;0.50;;
53145;SDS011;39042;53.150;5.898;2023-06-26T15:37:23;3.55;;;0.60;;
53145;SDS011;39042;53.150;5.898;2023-06-26T15:39:48;5.18;;;0.80;;
53145;SDS011;39042;53.150;5.898;2023-06-26T15:42:14;6.28;;;0.70;;
53145;SDS011;39042;53.150;5.898;2023-06-26T15:44:40;1.95;;;0.43;;
53145;SDS011;39042;53.150;5.898;2023-06-26T15:47:06;7.35;;;1.05;;
53145;SDS011;39042;53.150;5.898;2023-06-26T15:49:32;3.55;;;0.82;;
53145;SDS011;39042;53.150;5.898;2023-06-26T15:51:57;3.35;;;0.50;;
53145;SDS011;39042;53.150;5.898;2023-06-26T15:54:24;3.25;;;0.80;;
53145;SDS011;39042;53.150;5.898;2023-06-26T15:56:50;5.45;;;0.85;;
53145;SDS011;39042;53.150;5.898;2023-06-26T15:59:16;2.45;;;0.40;;
53145;SDS011;39042;53.150;5.898;2023-06-26T16:01:44;5.95;;;0.88;;
53145;SDS011;39042;53.150;5.898;2023-06-26T16:04:11;3.40;;;0.75;;
53145;SDS011;39042;53.150;5.898;2023-06-26T16:06:37;5.10;;;0.60;;
53145;SDS011;39042;53.150;5.898;2023-06-26T16:09:03;4.22;;;0.47;;
53145;SDS011;39042;53.150;5.898;2023-06-26T16:11:29;3.65;;;0.50;;
53145;SDS011;39042;53.150;5.898;2023-06-26T16:13:55;4.25;;;1.02;;